sensor_id;sensor_type;location;lat;lon;timestamp;P1;durP1;ratioP1;P2;durP2;ratioP2
58123;SDS011;46725;48.068;20.832;2022-10-17T00:01:02;37.72;;;19.70;;
58123;SDS011;46725;48.068;20.832;2022-10-17T00:03:28;35.35;;;19.60;;
58123;SDS011;46725;48.068;20.832;2022-10-17T00:05:55;33.08;;;18.27;;
58123;SDS011;46725;48.068;20.832;2022-10-17T00:08:21;33.75;;;19.70;;
58123;SDS011;46725;48.068;20.832;2022-10-17T00:11:04;33.50;;;20.00;;
58123;SDS011;46725;48.068;20.832;2022-10-17T00:13:31;35.53;;;19.77;;
58123;SDS011;46725;48.068;20.832;2022-10-17T00:15:57;34.53;;;18.95;;
58123;SDS011;46725;48.068;20.832;2022-10-17T00:18:23;34.75;;;20.38;;
58123;SDS011;46725;48.068;20.832;2022-10-17T00:20:49;32.88;;;19.30;;
58123;SDS011;46725;48.068;20.832;2022-10-17T00:23:16;35.80;;;18.20;;
58123;SDS011;46725;48.068;20.832;2022-10-17T00:25:42;35.20;;;18.90;;
58123;SDS011;46725;48.068;20.832;2022-10-17T00:28:09;32.25;;;20.42;;
58123;SDS011;46725;48.068;20.832;2022-10-17T00:30:35;37.70;;;21.30;;
58123;SDS011;46725;48.068;20.832;2022-10-17T00:33:01;42.25;;;22.35;;
58123;SDS011;46725;48.068;20.832;2022-10-17T00:35:27;39.67;;;20.77;;
58123;SDS011;46725;48.068;20.832;2022-10-17T00:37:53;32.63;;;20.42;;
58123;SDS011;46725;48.068;20.832;2022-10-17T00:40:19;32.10;;;20.17;;
58123;SDS011;46725;48.068;20.832;2022-10-17T00:42:45;35.33;;;21.25;;
58123;SDS011;46725;48.068;20.832;2022-10-17T00:47:38;35.80;;;21.08;;
58123;SDS011;46725;48.068;20.832;2022-10-17T00:50:04;35.40;;;21.05;;
58123;SDS011;46725;48.068;20.832;2022-10-17T00:52:31;33.22;;;20.42;;
58123;SDS011;46725;48.068;20.832;2022-10-17T00:54:59;34.58;;;20.42;;
58123;SDS011;46725;48.068;20.832;2022-10-17T00:57:27;34.30;;;20.52;;
58123;SDS011;46725;48.068;20.832;2022-10-17T00:59:55;36.85;;;21.98;;
58123;SDS011;46725;48.068;20.832;2022-10-17T01:02:22;37.53;;;22.48;;
58123;SDS011;46725;48.068;20.832;2022-10-17T01:04:49;38.10;;;21.58;;
58123;SDS011;46725;48.068;20.832;2022-10-17T01:07:16;40.63;;;20.60;;
58123;SDS011;46725;48.068;20.832;2022-10-17T01:09:42;38.15;;;20.90;;
58123;SDS011;46725;48.068;20.832;2022-10-17T01:17:14;38.58;;;21.95;;
58123;SDS011;46725;48.068;20.832;2022-10-17T01:32:51;36.95;;;21.80;;
58123;SDS011;46725;48.068;20.832;2022-10-17T01:35:21;37.08;;;21.88;;
58123;SDS011;46725;48.068;20.832;2022-10-17T01:37:51;39.40;;;21.83;;
58123;SDS011;46725;48.068;20.832;2022-10-17T01:40:24;37.78;;;22.30;;
58123;SDS011;46725;48.068;20.832;2022-10-17T01:45:32;37.38;;;21.60;;
58123;SDS011;46725;48.068;20.832;2022-10-17T01:48:05;32.97;;;19.00;;
58123;SDS011;46725;48.068;20.832;2022-10-17T01:50:36;37.25;;;21.17;;
58123;SDS011;46725;48.068;20.832;2022-10-17T01:53:05;38.50;;;21.73;;
58123;SDS011;46725;48.068;20.832;2022-10-17T01:55:34;42.33;;;23.23;;
58123;SDS011;46725;48.068;20.832;2022-10-17T01:58:09;41.22;;;23.30;;
58123;SDS011;46725;48.068;20.832;2022-10-17T02:00:37;37.63;;;21.85;;
58123;SDS011;46725;48.068;20.832;2022-10-17T02:03:05;41.35;;;23.42;;
58123;SDS011;46725;48.068;20.832;2022-10-17T02:05:34;39.20;;;22.50;;
58123;SDS011;46725;48.068;20.832;2022-10-17T02:08:01;38.83;;;22.80;;
58123;SDS011;46725;48.068;20.832;2022-10-17T02:10:34;41.25;;;22.45;;
58123;SDS011;46725;48.068;20.832;2022-10-17T02:17:59;41.42;;;23.42;;
58123;SDS011;46725;48.068;20.832;2022-10-17T02:20:36;41.55;;;22.17;;
58123;SDS011;46725;48.068;20.832;2022-10-17T02:25:38;38.08;;;21.02;;
58123;SDS011;46725;48.068;20.832;2022-10-17T02:30:52;39.15;;;20.33;;
58123;SDS011;46725;48.068;20.832;2022-10-17T02:35:46;35.20;;;19.65;;
58123;SDS011;46725;48.068;20.832;2022-10-17T02:38:14;37.03;;;21.60;;
58123;SDS011;46725;48.068;20.832;2022-10-17T02:40:40;36.92;;;21.33;;
58123;SDS011;46725;48.068;20.832;2022-10-17T02:43:07;37.80;;;21.02;;
58123;SDS011;46725;48.068;20.832;2022-10-17T02:45:33;36.75;;;21.17;;
58123;SDS011;46725;48.068;20.832;2022-10-17T02:48:02;35.58;;;20.30;;
58123;SDS011;46725;48.068;20.832;2022-10-17T02:50:32;37.00;;;20.42;;
58123;SDS011;46725;48.068;20.832;2022-10-17T02:53:03;34.08;;;20.40;;
58123;SDS011;46725;48.068;20.832;2022-10-17T02:55:31;38.92;;;21.95;;
58123;SDS011;46725;48.068;20.832;2022-10-17T02:57:59;32.55;;;19.48;;
58123;SDS011;46725;48.068;20.832;2022-10-17T03:00:28;31.13;;;18.88;;
58123;SDS011;46725;48.068;20.832;2022-10-17T03:02:54;35.15;;;19.23;;
58123;SDS011;46725;48.068;20.832;2022-10-17T03:05:24;39.65;;;20.90;;
58123;SDS011;46725;48.068;20.832;2022-10-17T03:07:51;33.33;;;20.33;;
58123;SDS011;46725;48.068;20.832;2022-10-17T03:10:17;43.08;;;22.40;;
58123;SDS011;46725;48.068;20.832;2022-10-17T03:12:44;36.25;;;20.33;;
58123;SDS011;46725;48.068;20.832;2022-10-17T03:15:10;33.72;;;20.45;;
58123;SDS011;46725;48.068;20.832;2022-10-17T03:17:36;37.25;;;20.10;;
58123;SDS011;46725;48.068;20.832;2022-10-17T03:20:03;37.33;;;19.40;;
58123;SDS011;46725;48.068;20.832;2022-10-17T03:22:29;33.60;;;19.42;;
58123;SDS011;46725;48.068;20.832;2022-10-17T03:24:55;37.53;;;20.98;;
58123;SDS011;46725;48.068;20.832;2022-10-17T03:27:21;39.65;;;20.08;;
58123;SDS011;46725;48.068;20.832;2022-10-17T03:29:47;35.13;;;20.05;;
58123;SDS011;46725;48.068;20.832;2022-10-17T03:32:13;35.47;;;18.92;;
58123;SDS011;46725;48.068;20.832;2022-10-17T03:34:39;32.85;;;19.33;;
58123;SDS011;46725;48.068;20.832;2022-10-17T03:37:05;35.40;;;19.55;;
58123;SDS011;46725;48.068;20.832;2022-10-17T03:39:31;32.47;;;18.85;;
58123;SDS011;46725;48.068;20.832;2022-10-17T03:41:57;33.40;;;17.00;;
58123;SDS011;46725;48.068;20.832;2022-10-17T03:44:23;33.40;;;18.75;;
58123;SDS011;46725;48.068;20.832;2022-10-17T03:46:50;35.25;;;17.95;;
58123;SDS011;46725;48.068;20.832;2022-10-17T03:49:16;35.67;;;17.65;;
58123;SDS011;46725;48.068;20.832;2022-10-17T03:51:42;34.45;;;18.83;;
58123;SDS011;46725;48.068;20.832;2022-10-17T03:54:08;34.50;;;19.13;;
58123;SDS011;46725;48.068;20.832;2022-10-17T03:56:34;34.20;;;19.98;;
58123;SDS011;46725;48.068;20.832;2022-10-17T03:59:00;32.03;;;16.20;;
58123;SDS011;46725;48.068;20.832;2022-10-17T04:01:26;31.88;;;17.65;;
58123;SDS011;46725;48.068;20.832;2022-10-17T04:03:53;28.45;;;17.15;;
58123;SDS011;46725;48.068;20.832;2022-10-17T04:06:19;29.40;;;17.70;;
58123;SDS011;46725;48.068;20.832;2022-10-17T04:08:46;35.17;;;17.35;;
58123;SDS011;46725;48.068;20.832;2022-10-17T04:11:13;32.78;;;16.48;;
58123;SDS011;46725;48.068;20.832;2022-10-17T04:13:40;28.10;;;16.52;;
58123;SDS011;46725;48.068;20.832;2022-10-17T04:16:06;31.23;;;16.60;;
58123;SDS011;46725;48.068;20.832;2022-10-17T04:18:33;26.67;;;15.05;;
58123;SDS011;46725;48.068;20.832;2022-10-17T04:21:05;27.70;;;15.75;;
58123;SDS011;46725;48.068;20.832;2022-10-17T04:23:32;30.77;;;16.08;;
58123;SDS011;46725;48.068;20.832;2022-10-17T04:25:58;30.85;;;16.25;;
58123;SDS011;46725;48.068;20.832;2022-10-17T04:28:26;30.50;;;15.35;;
58123;SDS011;46725;48.068;20.832;2022-10-17T04:30:56;29.15;;;16.23;;
58123;SDS011;46725;48.068;20.832;2022-10-17T04:33:22;29.52;;;16.30;;
58123;SDS011;46725;48.068;20.832;2022-10-17T04:35:58;31.85;;;16.80;;
58123;SDS011;46725;48.068;20.832;2022-10-17T04:38:25;24.70;;;15.35;;
58123;SDS011;46725;48.068;20.832;2022-10-17T04:40:52;31.67;;;15.57;;
58123;SDS011;46725;48.068;20.832;2022-10-17T04:43:18;30.95;;;16.40;;
58123;SDS011;46725;48.068;20.832;2022-10-17T04:45:44;35.20;;;18.73;;
58123;SDS011;46725;48.068;20.832;2022-10-17T04:48:10;31.58;;;16.27;;
58123;SDS011;46725;48.068;20.832;2022-10-17T04:50:36;22.42;;;13.80;;
58123;SDS011;46725;48.068;20.832;2022-10-17T04:53:02;30.52;;;14.63;;
58123;SDS011;46725;48.068;20.832;2022-10-17T04:55:28;27.27;;;14.27;;
58123;SDS011;46725;48.068;20.832;2022-10-17T04:57:54;29.30;;;14.68;;
58123;SDS011;46725;48.068;20.832;2022-10-17T05:00:20;24.65;;;15.13;;
58123;SDS011;46725;48.068;20.832;2022-10-17T05:02:46;25.67;;;14.82;;
58123;SDS011;46725;48.068;20.832;2022-10-17T05:05:12;20.95;;;13.57;;
58123;SDS011;46725;48.068;20.832;2022-10-17T05:07:39;26.98;;;14.18;;
58123;SDS011;46725;48.068;20.832;2022-10-17T05:10:05;27.77;;;16.20;;
58123;SDS011;46725;48.068;20.832;2022-10-17T05:12:31;22.83;;;14.45;;
58123;SDS011;46725;48.068;20.832;2022-10-17T05:14:57;26.42;;;14.77;;
58123;SDS011;46725;48.068;20.832;2022-10-17T05:17:23;19.45;;;12.60;;
58123;SDS011;46725;48.068;20.832;2022-10-17T05:19:50;31.15;;;14.00;;
58123;SDS011;46725;48.068;20.832;2022-10-17T05:22:16;27.23;;;14.88;;
58123;SDS011;46725;48.068;20.832;2022-10-17T05:24:42;26.92;;;15.90;;
58123;SDS011;46725;48.068;20.832;2022-10-17T05:27:08;34.35;;;16.52;;
58123;SDS011;46725;48.068;20.832;2022-10-17T05:29:34;31.15;;;18.20;;
58123;SDS011;46725;48.068;20.832;2022-10-17T05:32:00;33.47;;;18.05;;
58123;SDS011;46725;48.068;20.832;2022-10-17T05:34:26;35.25;;;21.05;;
58123;SDS011;46725;48.068;20.832;2022-10-17T05:36:52;40.13;;;19.77;;
58123;SDS011;46725;48.068;20.832;2022-10-17T05:39:18;45.72;;;21.48;;
58123;SDS011;46725;48.068;20.832;2022-10-17T05:41:44;39.03;;;20.38;;
58123;SDS011;46725;48.068;20.832;2022-10-17T05:44:11;52.33;;;21.98;;
58123;SDS011;46725;48.068;20.832;2022-10-17T05:46:37;38.15;;;22.00;;
58123;SDS011;46725;48.068;20.832;2022-10-17T05:49:03;37.95;;;20.35;;
58123;SDS011;46725;48.068;20.832;2022-10-17T05:51:31;44.72;;;22.33;;
58123;SDS011;46725;48.068;20.832;2022-10-17T05:53:57;38.17;;;22.55;;
58123;SDS011;46725;48.068;20.832;2022-10-17T05:56:23;46.00;;;23.10;;
58123;SDS011;46725;48.068;20.832;2022-10-17T05:58:49;44.45;;;21.45;;
58123;SDS011;46725;48.068;20.832;2022-10-17T06:01:15;40.85;;;21.98;;
58123;SDS011;46725;48.068;20.832;2022-10-17T06:03:41;45.20;;;22.20;;
58123;SDS011;46725;48.068;20.832;2022-10-17T06:06:10;35.88;;;22.73;;
58123;SDS011;46725;48.068;20.832;2022-10-17T06:08:36;42.67;;;22.23;;
58123;SDS011;46725;48.068;20.832;2022-10-17T06:11:02;36.25;;;21.95;;
58123;SDS011;46725;48.068;20.832;2022-10-17T06:13:29;39.08;;;22.60;;
58123;SDS011;46725;48.068;20.832;2022-10-17T06:15:55;47.85;;;23.42;;
58123;SDS011;46725;48.068;20.832;2022-10-17T06:18:21;38.47;;;22.40;;
58123;SDS011;46725;48.068;20.832;2022-10-17T06:20:47;52.15;;;23.83;;
58123;SDS011;46725;48.068;20.832;2022-10-17T06:23:13;44.33;;;25.83;;
58123;SDS011;46725;48.068;20.832;2022-10-17T06:25:39;48.00;;;24.63;;
58123;SDS011;46725;48.068;20.832;2022-10-17T06:28:06;43.20;;;23.40;;
58123;SDS011;46725;48.068;20.832;2022-10-17T06:30:32;43.65;;;24.95;;
58123;SDS011;46725;48.068;20.832;2022-10-17T06:32:58;43.13;;;24.00;;
58123;SDS011;46725;48.068;20.832;2022-10-17T06:35:24;45.00;;;24.48;;
58123;SDS011;46725;48.068;20.832;2022-10-17T06:37:50;45.55;;;24.45;;
58123;SDS011;46725;48.068;20.832;2022-10-17T06:40:16;42.88;;;24.67;;
58123;SDS011;46725;48.068;20.832;2022-10-17T06:42:42;43.15;;;24.42;;
58123;SDS011;46725;48.068;20.832;2022-10-17T06:45:08;46.08;;;23.77;;
58123;SDS011;46725;48.068;20.832;2022-10-17T06:47:36;48.88;;;25.20;;
58123;SDS011;46725;48.068;20.832;2022-10-17T06:50:02;46.95;;;25.42;;
58123;SDS011;46725;48.068;20.832;2022-10-17T06:52:28;40.88;;;24.80;;
58123;SDS011;46725;48.068;20.832;2022-10-17T06:54:54;39.80;;;25.95;;
58123;SDS011;46725;48.068;20.832;2022-10-17T06:57:20;43.72;;;26.15;;
58123;SDS011;46725;48.068;20.832;2022-10-17T06:59:46;42.38;;;23.98;;
58123;SDS011;46725;48.068;20.832;2022-10-17T07:02:12;45.60;;;25.33;;
58123;SDS011;46725;48.068;20.832;2022-10-17T07:04:38;44.30;;;23.00;;
58123;SDS011;46725;48.068;20.832;2022-10-17T07:07:04;42.25;;;24.67;;
58123;SDS011;46725;48.068;20.832;2022-10-17T07:09:30;38.58;;;24.35;;
58123;SDS011;46725;48.068;20.832;2022-10-17T07:11:57;42.30;;;23.80;;
58123;SDS011;46725;48.068;20.832;2022-10-17T07:14:23;44.15;;;24.48;;
58123;SDS011;46725;48.068;20.832;2022-10-17T07:19:21;42.70;;;22.40;;
58123;SDS011;46725;48.068;20.832;2022-10-17T07:21:48;40.60;;;22.95;;
58123;SDS011;46725;48.068;20.832;2022-10-17T07:24:14;30.42;;;19.52;;
58123;SDS011;46725;48.068;20.832;2022-10-17T07:26:40;39.50;;;22.27;;
58123;SDS011;46725;48.068;20.832;2022-10-17T07:29:06;35.97;;;21.38;;
58123;SDS011;46725;48.068;20.832;2022-10-17T07:31:32;35.05;;;19.45;;
58123;SDS011;46725;48.068;20.832;2022-10-17T07:33:59;36.85;;;21.95;;
58123;SDS011;46725;48.068;20.832;2022-10-17T07:36:25;36.08;;;20.38;;
58123;SDS011;46725;48.068;20.832;2022-10-17T07:38:51;36.42;;;21.05;;
58123;SDS011;46725;48.068;20.832;2022-10-17T07:41:17;35.08;;;20.20;;
58123;SDS011;46725;48.068;20.832;2022-10-17T07:43:43;37.75;;;19.02;;
58123;SDS011;46725;48.068;20.832;2022-10-17T07:46:10;39.47;;;20.33;;
58123;SDS011;46725;48.068;20.832;2022-10-17T07:48:36;32.60;;;18.48;;
58123;SDS011;46725;48.068;20.832;2022-10-17T07:51:04;34.13;;;18.88;;
58123;SDS011;46725;48.068;20.832;2022-10-17T07:53:31;29.00;;;16.92;;
58123;SDS011;46725;48.068;20.832;2022-10-17T07:55:57;31.23;;;17.75;;
58123;SDS011;46725;48.068;20.832;2022-10-17T07:58:23;29.17;;;17.77;;
58123;SDS011;46725;48.068;20.832;2022-10-17T08:00:49;26.25;;;16.52;;
58123;SDS011;46725;48.068;20.832;2022-10-17T08:03:16;27.20;;;15.65;;
58123;SDS011;46725;48.068;20.832;2022-10-17T08:05:42;27.20;;;17.23;;
58123;SDS011;46725;48.068;20.832;2022-10-17T08:08:08;30.58;;;17.98;;
58123;SDS011;46725;48.068;20.832;2022-10-17T08:10:34;26.08;;;15.43;;
58123;SDS011;46725;48.068;20.832;2022-10-17T08:13:00;29.10;;;15.85;;
58123;SDS011;46725;48.068;20.832;2022-10-17T08:15:26;28.55;;;15.80;;
58123;SDS011;46725;48.068;20.832;2022-10-17T08:17:52;29.05;;;17.27;;
58123;SDS011;46725;48.068;20.832;2022-10-17T08:20:19;27.85;;;15.50;;
58123;SDS011;46725;48.068;20.832;2022-10-17T08:22:52;23.52;;;14.15;;
58123;SDS011;46725;48.068;20.832;2022-10-17T08:25:19;24.83;;;15.23;;
58123;SDS011;46725;48.068;20.832;2022-10-17T08:27:45;23.10;;;14.90;;
58123;SDS011;46725;48.068;20.832;2022-10-17T08:30:11;22.60;;;14.30;;
58123;SDS011;46725;48.068;20.832;2022-10-17T08:32:37;23.73;;;13.85;;
58123;SDS011;46725;48.068;20.832;2022-10-17T08:35:03;25.60;;;14.57;;
58123;SDS011;46725;48.068;20.832;2022-10-17T08:37:29;26.52;;;14.32;;
58123;SDS011;46725;48.068;20.832;2022-10-17T08:39:56;28.05;;;13.70;;
58123;SDS011;46725;48.068;20.832;2022-10-17T08:45:55;24.55;;;13.95;;
58123;SDS011;46725;48.068;20.832;2022-10-17T08:47:59;25.50;;;14.13;;
58123;SDS011;46725;48.068;20.832;2022-10-17T08:50:28;24.08;;;13.13;;
58123;SDS011;46725;48.068;20.832;2022-10-17T08:53:03;28.88;;;14.93;;
58123;SDS011;46725;48.068;20.832;2022-10-17T08:55:32;17.60;;;11.63;;
58123;SDS011;46725;48.068;20.832;2022-10-17T08:58:00;20.88;;;13.13;;
58123;SDS011;46725;48.068;20.832;2022-10-17T09:00:27;23.40;;;13.57;;
58123;SDS011;46725;48.068;20.832;2022-10-17T09:05:26;20.48;;;12.65;;
58123;SDS011;46725;48.068;20.832;2022-10-17T09:08:08;22.20;;;12.30;;
58123;SDS011;46725;48.068;20.832;2022-10-17T09:18:26;22.52;;;12.52;;
58123;SDS011;46725;48.068;20.832;2022-10-17T09:20:57;20.27;;;12.05;;
58123;SDS011;46725;48.068;20.832;2022-10-17T09:23:27;18.83;;;11.60;;
58123;SDS011;46725;48.068;20.832;2022-10-17T09:25:57;19.25;;;11.68;;
58123;SDS011;46725;48.068;20.832;2022-10-17T09:28:28;19.05;;;11.50;;
58123;SDS011;46725;48.068;20.832;2022-10-17T09:30:59;21.83;;;11.98;;
58123;SDS011;46725;48.068;20.832;2022-10-17T09:33:27;17.27;;;11.35;;
58123;SDS011;46725;48.068;20.832;2022-10-17T09:35:55;15.50;;;10.50;;
58123;SDS011;46725;48.068;20.832;2022-10-17T09:38:22;16.02;;;11.30;;
58123;SDS011;46725;48.068;20.832;2022-10-17T09:40:50;20.55;;;10.77;;
58123;SDS011;46725;48.068;20.832;2022-10-17T09:43:19;18.35;;;12.48;;
58123;SDS011;46725;48.068;20.832;2022-10-17T09:46:08;19.88;;;12.15;;
58123;SDS011;46725;48.068;20.832;2022-10-17T09:51:31;19.83;;;12.77;;
58123;SDS011;46725;48.068;20.832;2022-10-17T09:54:00;19.80;;;12.57;;
58123;SDS011;46725;48.068;20.832;2022-10-17T09:56:27;22.63;;;11.98;;
58123;SDS011;46725;48.068;20.832;2022-10-17T09:58:57;18.77;;;12.40;;
58123;SDS011;46725;48.068;20.832;2022-10-17T10:01:24;19.95;;;12.50;;
58123;SDS011;46725;48.068;20.832;2022-10-17T10:04:11;21.75;;;12.07;;
58123;SDS011;46725;48.068;20.832;2022-10-17T10:06:38;18.38;;;11.13;;
58123;SDS011;46725;48.068;20.832;2022-10-17T10:09:04;19.65;;;12.90;;
58123;SDS011;46725;48.068;20.832;2022-10-17T10:14:55;22.80;;;14.20;;
58123;SDS011;46725;48.068;20.832;2022-10-17T10:17:25;26.60;;;13.50;;
58123;SDS011;46725;48.068;20.832;2022-10-17T10:19:49;27.45;;;12.85;;
58123;SDS011;46725;48.068;20.832;2022-10-17T10:22:19;26.35;;;13.48;;
58123;SDS011;46725;48.068;20.832;2022-10-17T10:25:05;20.33;;;12.05;;
58123;SDS011;46725;48.068;20.832;2022-10-17T10:27:31;19.70;;;9.90;;
58123;SDS011;46725;48.068;20.832;2022-10-17T10:29:57;22.45;;;9.77;;
58123;SDS011;46725;48.068;20.832;2022-10-17T10:32:27;22.05;;;10.20;;
58123;SDS011;46725;48.068;20.832;2022-10-17T10:37:25;15.68;;;8.73;;
58123;SDS011;46725;48.068;20.832;2022-10-17T10:39:58;13.60;;;8.27;;
58123;SDS011;46725;48.068;20.832;2022-10-17T10:44:52;16.80;;;8.05;;
58123;SDS011;46725;48.068;20.832;2022-10-17T10:47:21;17.55;;;7.63;;
58123;SDS011;46725;48.068;20.832;2022-10-17T10:49:49;14.57;;;7.60;;
58123;SDS011;46725;48.068;20.832;2022-10-17T10:52:49;16.85;;;8.27;;
58123;SDS011;46725;48.068;20.832;2022-10-17T10:57:34;12.93;;;7.68;;
58123;SDS011;46725;48.068;20.832;2022-10-17T11:00:21;23.45;;;7.32;;
58123;SDS011;46725;48.068;20.832;2022-10-17T11:02:55;13.48;;;7.22;;
58123;SDS011;46725;48.068;20.832;2022-10-17T11:05:32;11.98;;;7.40;;
58123;SDS011;46725;48.068;20.832;2022-10-17T11:10:56;13.32;;;6.97;;
58123;SDS011;46725;48.068;20.832;2022-10-17T11:13:32;13.40;;;7.28;;
58123;SDS011;46725;48.068;20.832;2022-10-17T11:16:20;15.18;;;7.78;;
58123;SDS011;46725;48.068;20.832;2022-10-17T11:18:57;13.90;;;7.43;;
58123;SDS011;46725;48.068;20.832;2022-10-17T11:21:42;14.60;;;8.07;;
58123;SDS011;46725;48.068;20.832;2022-10-17T11:26:40;15.45;;;6.93;;
58123;SDS011;46725;48.068;20.832;2022-10-17T11:29:08;9.40;;;5.43;;
58123;SDS011;46725;48.068;20.832;2022-10-17T11:31:37;13.55;;;6.20;;
58123;SDS011;46725;48.068;20.832;2022-10-17T11:34:23;9.55;;;5.57;;
58123;SDS011;46725;48.068;20.832;2022-10-17T11:36:54;11.88;;;5.40;;
58123;SDS011;46725;48.068;20.832;2022-10-17T11:39:24;10.40;;;5.80;;
58123;SDS011;46725;48.068;20.832;2022-10-17T11:41:53;9.85;;;5.07;;
58123;SDS011;46725;48.068;20.832;2022-10-17T11:46:50;9.77;;;4.72;;
58123;SDS011;46725;48.068;20.832;2022-10-17T11:49:19;18.88;;;5.15;;
58123;SDS011;46725;48.068;20.832;2022-10-17T11:51:50;11.88;;;5.13;;
58123;SDS011;46725;48.068;20.832;2022-10-17T11:54:18;10.93;;;5.82;;
58123;SDS011;46725;48.068;20.832;2022-10-17T11:56:50;11.98;;;5.90;;
58123;SDS011;46725;48.068;20.832;2022-10-17T12:01:49;11.15;;;5.55;;
58123;SDS011;46725;48.068;20.832;2022-10-17T12:04:28;8.68;;;5.13;;
58123;SDS011;46725;48.068;20.832;2022-10-17T12:07:16;9.20;;;5.75;;
58123;SDS011;46725;48.068;20.832;2022-10-17T12:12:24;9.90;;;4.53;;
58123;SDS011;46725;48.068;20.832;2022-10-17T12:14:50;8.80;;;4.60;;
58123;SDS011;46725;48.068;20.832;2022-10-17T12:17:22;11.48;;;5.05;;
58123;SDS011;46725;48.068;20.832;2022-10-17T12:19:50;8.48;;;4.28;;
58123;SDS011;46725;48.068;20.832;2022-10-17T12:24:44;8.52;;;4.25;;
58123;SDS011;46725;48.068;20.832;2022-10-17T12:32:15;12.15;;;6.53;;
58123;SDS011;46725;48.068;20.832;2022-10-17T12:42:50;6.18;;;4.15;;
58123;SDS011;46725;48.068;20.832;2022-10-17T12:48:01;8.82;;;4.38;;
58123;SDS011;46725;48.068;20.832;2022-10-17T12:53:11;10.55;;;4.63;;
58123;SDS011;46725;48.068;20.832;2022-10-17T12:55:39;7.50;;;3.67;;
58123;SDS011;46725;48.068;20.832;2022-10-17T12:58:10;9.10;;;4.65;;
58123;SDS011;46725;48.068;20.832;2022-10-17T13:00:42;10.55;;;4.70;;
58123;SDS011;46725;48.068;20.832;2022-10-17T13:03:13;7.97;;;4.53;;
58123;SDS011;46725;48.068;20.832;2022-10-17T13:05:41;11.23;;;4.93;;
58123;SDS011;46725;48.068;20.832;2022-10-17T13:08:12;7.20;;;4.45;;
58123;SDS011;46725;48.068;20.832;2022-10-17T13:10:39;12.52;;;7.47;;
58123;SDS011;46725;48.068;20.832;2022-10-17T13:13:52;11.35;;;5.65;;
58123;SDS011;46725;48.068;20.832;2022-10-17T13:15:57;8.83;;;4.37;;
58123;SDS011;46725;48.068;20.832;2022-10-17T13:18:24;8.02;;;4.32;;
58123;SDS011;46725;48.068;20.832;2022-10-17T13:21:33;10.98;;;4.53;;
58123;SDS011;46725;48.068;20.832;2022-10-17T13:23:40;15.27;;;4.22;;
58123;SDS011;46725;48.068;20.832;2022-10-17T13:26:14;11.10;;;5.35;;
58123;SDS011;46725;48.068;20.832;2022-10-17T13:28:42;15.82;;;7.32;;
58123;SDS011;46725;48.068;20.832;2022-10-17T13:31:25;12.43;;;6.10;;
58123;SDS011;46725;48.068;20.832;2022-10-17T13:33:54;15.13;;;7.60;;
58123;SDS011;46725;48.068;20.832;2022-10-17T13:36:21;18.23;;;6.03;;
58123;SDS011;46725;48.068;20.832;2022-10-17T13:38:47;9.23;;;4.63;;
58123;SDS011;46725;48.068;20.832;2022-10-17T13:41:13;7.93;;;4.75;;
58123;SDS011;46725;48.068;20.832;2022-10-17T13:43:41;8.10;;;4.18;;
58123;SDS011;46725;48.068;20.832;2022-10-17T13:46:07;9.20;;;3.78;;
58123;SDS011;46725;48.068;20.832;2022-10-17T13:48:41;12.18;;;4.40;;
58123;SDS011;46725;48.068;20.832;2022-10-17T13:51:07;13.25;;;4.97;;
58123;SDS011;46725;48.068;20.832;2022-10-17T13:53:34;7.82;;;3.92;;
58123;SDS011;46725;48.068;20.832;2022-10-17T13:56:05;9.05;;;4.22;;
58123;SDS011;46725;48.068;20.832;2022-10-17T13:58:39;7.20;;;4.00;;
58123;SDS011;46725;48.068;20.832;2022-10-17T14:01:06;7.97;;;4.20;;
58123;SDS011;46725;48.068;20.832;2022-10-17T14:03:32;10.00;;;4.07;;
58123;SDS011;46725;48.068;20.832;2022-10-17T14:06:03;8.55;;;4.00;;
58123;SDS011;46725;48.068;20.832;2022-10-17T14:08:30;10.25;;;5.20;;
58123;SDS011;46725;48.068;20.832;2022-10-17T14:10:56;9.55;;;4.78;;
58123;SDS011;46725;48.068;20.832;2022-10-17T14:13:23;11.27;;;6.30;;
58123;SDS011;46725;48.068;20.832;2022-10-17T14:15:51;11.00;;;5.20;;
58123;SDS011;46725;48.068;20.832;2022-10-17T14:18:19;11.60;;;5.40;;
58123;SDS011;46725;48.068;20.832;2022-10-17T14:20:46;10.70;;;5.13;;
58123;SDS011;46725;48.068;20.832;2022-10-17T14:26:02;9.48;;;4.40;;
58123;SDS011;46725;48.068;20.832;2022-10-17T14:28:29;9.90;;;5.00;;
58123;SDS011;46725;48.068;20.832;2022-10-17T14:31:07;11.15;;;4.30;;
58123;SDS011;46725;48.068;20.832;2022-10-17T14:33:34;8.23;;;5.00;;
58123;SDS011;46725;48.068;20.832;2022-10-17T14:36:00;11.68;;;6.32;;
58123;SDS011;46725;48.068;20.832;2022-10-17T14:38:27;10.93;;;6.57;;
58123;SDS011;46725;48.068;20.832;2022-10-17T14:40:58;11.30;;;6.38;;
58123;SDS011;46725;48.068;20.832;2022-10-17T14:43:26;11.30;;;5.10;;
58123;SDS011;46725;48.068;20.832;2022-10-17T14:45:55;10.45;;;5.13;;
58123;SDS011;46725;48.068;20.832;2022-10-17T14:48:22;9.20;;;4.72;;
58123;SDS011;46725;48.068;20.832;2022-10-17T14:51:06;7.47;;;4.35;;
58123;SDS011;46725;48.068;20.832;2022-10-17T14:53:32;13.73;;;4.95;;
58123;SDS011;46725;48.068;20.832;2022-10-17T14:55:59;9.80;;;4.72;;
58123;SDS011;46725;48.068;20.832;2022-10-17T14:58:26;8.65;;;4.35;;
58123;SDS011;46725;48.068;20.832;2022-10-17T15:00:53;9.48;;;4.30;;
58123;SDS011;46725;48.068;20.832;2022-10-17T15:03:19;10.02;;;4.90;;
58123;SDS011;46725;48.068;20.832;2022-10-17T15:05:45;9.88;;;4.63;;
58123;SDS011;46725;48.068;20.832;2022-10-17T15:08:15;11.27;;;4.97;;
58123;SDS011;46725;48.068;20.832;2022-10-17T15:10:42;12.05;;;5.30;;
58123;SDS011;46725;48.068;20.832;2022-10-17T15:13:09;10.75;;;5.13;;
58123;SDS011;46725;48.068;20.832;2022-10-17T15:15:35;10.65;;;4.82;;
58123;SDS011;46725;48.068;20.832;2022-10-17T15:18:02;13.15;;;5.50;;
58123;SDS011;46725;48.068;20.832;2022-10-17T15:20:28;12.65;;;7.20;;
58123;SDS011;46725;48.068;20.832;2022-10-17T15:22:55;14.45;;;6.93;;
58123;SDS011;46725;48.068;20.832;2022-10-17T15:25:21;13.02;;;7.20;;
58123;SDS011;46725;48.068;20.832;2022-10-17T15:27:47;11.95;;;7.35;;
58123;SDS011;46725;48.068;20.832;2022-10-17T15:30:35;13.45;;;7.20;;
58123;SDS011;46725;48.068;20.832;2022-10-17T15:33:00;16.75;;;7.78;;
58123;SDS011;46725;48.068;20.832;2022-10-17T15:35:26;9.95;;;6.72;;
58123;SDS011;46725;48.068;20.832;2022-10-17T15:37:53;11.52;;;6.45;;
58123;SDS011;46725;48.068;20.832;2022-10-17T15:40:24;13.20;;;6.45;;
58123;SDS011;46725;48.068;20.832;2022-10-17T15:42:52;11.73;;;7.05;;
58123;SDS011;46725;48.068;20.832;2022-10-17T15:45:18;12.80;;;7.22;;
58123;SDS011;46725;48.068;20.832;2022-10-17T15:47:49;13.23;;;6.82;;
58123;SDS011;46725;48.068;20.832;2022-10-17T15:50:16;12.57;;;6.93;;
58123;SDS011;46725;48.068;20.832;2022-10-17T15:52:42;14.00;;;6.30;;
58123;SDS011;46725;48.068;20.832;2022-10-17T15:55:11;16.05;;;7.20;;
58123;SDS011;46725;48.068;20.832;2022-10-17T15:57:39;19.25;;;7.18;;
58123;SDS011;46725;48.068;20.832;2022-10-17T16:00:07;15.00;;;7.25;;
58123;SDS011;46725;48.068;20.832;2022-10-17T16:02:36;14.68;;;7.63;;